Time;durP1;ratioP1;P1;durP2;ratioP2;P2;SDS_P1;SDS_P2;PMS_P1;PMS_P2;Temp;Humidity;BMP_temperature;BMP_pressure;BME280_temperature;BME280_humidity;BME280_pressure;Samples;Min_cycle;Max_cycle;Signal;HPM_P1;HPM_P2
2023/06/05 00:01:03;;;;;;;;;;;;;;;;;;5093665;28;19920;-83
2023/06/05 00:03:29;;;;;;;;;;;;;;;;;;5077236;28;19942;-83
2023/06/05 00:05:55;;;;;;;;;;;;;;;;;;5076986;28;19927;-84
2023/06/05 00:08:21;;;;;;;;;;;;;;;;;;5091432;28;19924;-83
2023/06/05 00:10:47;;;;;;;;;;;;;;;;;;5093236;28;19921;-83
2023/06/05 00:13:13;;;;;;;;;;;;;;;;;;5094004;28;20300;-84
2023/06/05 00:15:39;;;;;;;;;;;;;;;;;;5078250;28;20381;-83
2023/06/05 00:18:05;;;;;;;;;;;;;;;;;;5075707;28;19950;-83
2023/06/05 00:20:31;;;;;;;;;;;;;;;;;;5093462;28;19924;-83
2023/06/05 00:22:57;;;;;;;;;;;;;;;;;;5067113;28;19921;-83
2023/06/05 00:25:22;;;;;;;;;;;;;;;;;;5090772;28;19985;-84
2023/06/05 00:27:48;;;;;;;;;;;;;;;;;;5057199;28;19920;-83
2023/06/05 00:30:14;;;;;;;;;;;;;;;;;;5108353;28;19920;-83
2023/06/05 00:32:40;;;;;;;;;;;;;;;;;;5093711;28;19924;-83
2023/06/05 00:35:07;;;;;;;;;;;;;;;;;;5093790;28;20375;-83
2023/06/05 00:37:33;;;;;;;;;;;;;;;;;;5093456;28;19928;-83
2023/06/05 00:39:59;;;;;;;;;;;;;;;;;;5059388;28;19920;-83
2023/06/05 00:42:26;;;;;;;;;;;;;;;;;;5076433;28;19934;-83
2023/06/05 00:44:52;;;;;;;;;;;;;;;;;;5059647;28;20340;-83
2023/06/05 00:47:18;;;;;;;;;;;;;;;;;;5092996;28;19975;-83
2023/06/05 00:49:44;;;;;;;;;;;;;;;;;;5092397;28;19926;-83
2023/06/05 00:52:09;;;;;;;;;;;;;;;;;;5092823;28;19920;-83
2023/06/05 00:54:35;;;;;;;;;;;;;;;;;;5075982;28;19924;-83
2023/06/05 00:57:01;;;;;;;;;;;;;;;;;;5093154;28;20384;-83
2023/06/05 00:59:27;;;;;;;;;;;;;;;;;;5092900;28;19923;-83
2023/06/05 01:01:54;;;;;;;;;;;;;;;;;;5092896;28;20010;-83
2023/06/05 01:04:20;;;;;;;;;;;;;;;;;;5093073;28;19920;-83
2023/06/05 01:06:46;;;;;;;;;;;;;;;;;;5093052;28;19926;-83
2023/06/05 01:09:13;;;;;;;;;;;;;;;;;;5092909;28;19920;-83
2023/06/05 01:11:39;;;;;;;;;;;;;;;;;;5092630;28;20077;-83
2023/06/05 01:14:04;;;;;;;;;;;;;;;;;;5092768;28;20413;-83
2023/06/05 01:16:32;;;;;;;;;;;;;;;;;;5075964;28;19924;-83
2023/06/05 01:19:02;;;;;;;;;;;;;;;;;;5059255;28;19931;-83
2023/06/05 01:21:28;;;;;;;;;;;;;;;;;;5059075;28;20419;-83
2023/06/05 01:23:54;;;;;;;;;;;;;;;;;;5092685;28;19924;-83
2023/06/05 01:26:21;;;;;;;;;;;;;;;;;;5092717;28;20365;-83
2023/06/05 01:28:47;;;;;;;;;;;;;;;;;;5059161;28;19931;-83
2023/06/05 01:31:16;;;;;;;;;;;;;;;;;;5075423;28;19920;-83
2023/06/05 01:33:43;;;;;;;;;;;;;;;;;;5075707;28;19943;-83
2023/06/05 01:36:09;;;;;;;;;;;;;;;;;;5059295;28;20373;-83
2023/06/05 01:38:35;;;;;;;;;;;;;;;;;;5092487;28;19931;-83
2023/06/05 01:41:01;;;;;;;;;;;;;;;;;;5092126;28;19924;-83
2023/06/05 01:43:26;;;;;;;;;;;;;;;;;;5075932;28;19924;-83
2023/06/05 01:45:52;;;;;;;;;;;;;;;;;;5075855;28;19920;-83
2023/06/05 01:48:18;;;;;;;;;;;;;;;;;;5092314;28;19943;-83
2023/06/05 01:50:45;;;;;;;;;;;;;;;;;;5075569;28;19926;-83
2023/06/05 01:53:12;;;;;;;;;;;;;;;;;;5058905;28;20432;-83
2023/06/05 01:55:39;;;;;;;;;;;;;;;;;;5075550;28;20018;-83
2023/06/05 01:58:05;;;;;;;;;;;;;;;;;;5075419;28;19978;-83
2023/06/05 02:00:30;;;;;;;;;;;;;;;;;;5074958;28;19924;-82
2023/06/05 02:02:56;;;;;;;;;;;;;;;;;;5081093;28;19942;-83
2023/06/05 02:05:23;;;;;;;;;;;;;;;;;;5082353;28;19920;-83
2023/06/05 02:07:58;;;;;;;;;;;;;;;;;;5065384;28;20348;-83
2023/06/05 02:10:24;;;;;;;;;;;;;;;;;;5081464;28;20504;-83
2023/06/05 02:12:50;;;;;;;;;;;;;;;;;;5082087;28;19920;-83
2023/06/05 02:15:16;;;;;;;;;;;;;;;;;;5065414;28;19985;-83
2023/06/05 02:17:50;;;;;;;;;;;;;;;;;;5098915;28;20388;-83
2023/06/05 02:20:16;;;;;;;;;;;;;;;;;;5064668;28;19920;-83
2023/06/05 02:22:41;;;;;;;;;;;;;;;;;;5098764;28;19927;-83
2023/06/05 02:25:07;;;;;;;;;;;;;;;;;;5098845;28;19920;-83
2023/06/05 02:27:33;;;;;;;;;;;;;;;;;;5098763;28;19920;-83
2023/06/05 02:29:59;;;;;;;;;;;;;;;;;;5098422;28;19927;-83
2023/06/05 02:32:26;;;;;;;;;;;;;;;;;;5082181;28;19920;-83
2023/06/05 02:34:52;;;;;;;;;;;;;;;;;;5065473;28;19927;-82
2023/06/05 02:37:18;;;;;;;;;;;;;;;;;;5081850;28;19924;-83
2023/06/05 02:39:45;;;;;;;;;;;;;;;;;;5081438;28;19920;-83
2023/06/05 02:42:12;;;;;;;;;;;;;;;;;;5081905;28;19930;-83
2023/06/05 02:44:38;;;;;;;;;;;;;;;;;;5065056;28;19927;-83
2023/06/05 02:47:04;;;;;;;;;;;;;;;;;;5098766;28;19920;-83
2023/06/05 02:49:32;;;;;;;;;;;;;;;;;;5064900;28;19920;-83
2023/06/05 02:51:57;;;;;;;;;;;;;;;;;;5081478;28;19968;-83
2023/06/05 02:54:23;;;;;;;;;;;;;;;;;;5081778;28;19924;-83
2023/06/05 02:56:49;;;;;;;;;;;;;;;;;;5098788;28;19920;-83
2023/06/05 02:59:15;;;;;;;;;;;;;;;;;;5098525;28;19946;-83
2023/06/05 03:01:47;;;;;;;;;;;;;;;;;;5081496;28;19924;-83
2023/06/05 03:04:13;;;;;;;;;;;;;;;;;;5064970;28;19920;-83
2023/06/05 03:06:42;;;;;;;;;;;;;;;;;;5098509;28;19926;-83
2023/06/05 03:09:07;;;;;;;;;;;;;;;;;;5064526;28;20003;-83
2023/06/05 03:11:33;;;;;;;;;;;;;;;;;;5098490;28;20009;-83
2023/06/05 03:13:59;;;;;;;;;;;;;;;;;;5078756;28;19920;-83
2023/06/05 03:16:32;;;;;;;;;;;;;;;;;;5078231;28;20010;-83
2023/06/05 03:18:58;;;;;;;;;;;;;;;;;;5061425;28;20011;-83
2023/06/05 03:21:24;;;;;;;;;;;;;;;;;;5077739;28;19967;-83
2023/06/05 03:23:50;;;;;;;;;;;;;;;;;;5061384;28;19923;-83
2023/06/05 03:26:16;;;;;;;;;;;;;;;;;;5078145;28;19927;-83
2023/06/05 03:28:42;;;;;;;;;;;;;;;;;;5078143;28;19920;-83
2023/06/05 03:31:10;;;;;;;;;;;;;;;;;;5077630;28;19983;-83
2023/06/05 03:33:36;;;;;;;;;;;;;;;;;;5061199;28;19920;-83
2023/06/05 03:36:01;;;;;;;;;;;;;;;;;;5077799;28;20285;-83
2023/06/05 03:38:27;;;;;;;;;;;;;;;;;;5094514;28;19928;-83
2023/06/05 03:40:53;;;;;;;;;;;;;;;;;;5094649;28;20468;-83
2023/06/05 03:43:19;;;;;;;;;;;;;;;;;;5095202;28;19920;-83
2023/06/05 03:45:46;;;;;;;;;;;;;;;;;;5077984;28;19942;-84
2023/06/05 03:48:13;;;;;;;;;;;;;;;;;;5060766;28;19924;-83
2023/06/05 03:50:39;;;;;;;;;;;;;;;;;;5060483;28;19920;-83
2023/06/05 03:53:05;;;;;;;;;;;;;;;;;;5094557;28;20365;-82
2023/06/05 03:55:40;;;;;;;;;;;;;;;;;;5094424;28;20132;-83
2023/06/05 03:58:07;;;;;;;;;;;;;;;;;;5077561;28;19932;-83
2023/06/05 04:00:33;;;;;;;;;;;;;;;;;;5060313;28;19956;-83
2023/06/05 04:02:59;;;;;;;;;;;;;;;;;;5075280;28;19971;-83
2023/06/05 04:05:25;;;;;;;;;;;;;;;;;;5059863;28;20407;-83
2023/06/05 04:07:51;;;;;;;;;;;;;;;;;;5059923;28;19924;-83
2023/06/05 04:10:17;;;;;;;;;;;;;;;;;;5076018;28;20381;-83
2023/06/05 04:12:43;;;;;;;;;;;;;;;;;;5110358;28;19920;-83
2023/06/05 04:15:09;;;;;;;;;;;;;;;;;;5059888;28;20369;-83
2023/06/05 04:17:37;;;;;;;;;;;;;;;;;;5076356;28;20300;-83
2023/06/05 04:20:03;;;;;;;;;;;;;;;;;;5076285;28;19965;-83
2023/06/05 04:22:29;;;;;;;;;;;;;;;;;;5075974;28;19920;-83
2023/06/05 04:24:55;;;;;;;;;;;;;;;;;;5075931;28;19920;-84
2023/06/05 04:27:21;;;;;;;;;;;;;;;;;;5076245;28;20010;-83
2023/06/05 04:29:49;;;;;;;;;;;;;;;;;;5075470;28;20369;-83
2023/06/05 04:32:16;;;;;;;;;;;;;;;;;;5076049;28;19920;-83
2023/06/05 04:34:42;;;;;;;;;;;;;;;;;;5092766;28;20368;-83
2023/06/05 04:37:08;;;;;;;;;;;;;;;;;;5092580;28;19920;-83
2023/06/05 04:39:34;;;;;;;;;;;;;;;;;;5109237;28;19920;-83
2023/06/05 04:42:00;;;;;;;;;;;;;;;;;;5059333;28;20415;-83
2023/06/05 04:44:26;;;;;;;;;;;;;;;;;;5058877;28;19927;-83
2023/06/05 04:46:52;;;;;;;;;;;;;;;;;;5075661;28;19920;-83
2023/06/05 04:49:18;;;;;;;;;;;;;;;;;;5075478;28;19927;-83
2023/06/05 04:51:44;;;;;;;;;;;;;;;;;;5075252;28;19924;-83
2023/06/05 04:54:10;;;;;;;;;;;;;;;;;;5058723;28;20010;-84
2023/06/05 04:56:37;;;;;;;;;;;;;;;;;;5059129;28;20377;-83
2023/06/05 04:59:03;;;;;;;;;;;;;;;;;;5109185;28;19924;-83
2023/06/05 05:01:29;;;;;;;;;;;;;;;;;;5058162;28;19927;-83
2023/06/05 05:03:55;;;;;;;;;;;;;;;;;;5075377;28;20385;-83
2023/06/05 05:06:21;;;;;;;;;;;;;;;;;;5075273;28;20015;-83
2023/06/05 05:08:50;;;;;;;;;;;;;;;;;;5058494;28;19924;-83
2023/06/05 05:11:16;;;;;;;;;;;;;;;;;;5074961;28;19920;-83
2023/06/05 05:13:42;;;;;;;;;;;;;;;;;;5058617;28;19927;-83
2023/06/05 05:16:08;;;;;;;;;;;;;;;;;;5058734;28;19947;-83
2023/06/05 05:18:34;;;;;;;;;;;;;;;;;;5058263;28;20044;-83
2023/06/05 05:21:02;;;;;;;;;;;;;;;;;;5074659;28;19923;-83
2023/06/05 05:23:28;;;;;;;;;;;;;;;;;;5057958;28;19959;-83
2023/06/05 05:25:54;;;;;;;;;;;;;;;;;;5109313;28;19920;-83
2023/06/05 05:28:20;;;;;;;;;;;;;;;;;;5092091;28;20010;-83
2023/06/05 05:30:46;;;;;;;;;;;;;;;;;;5091506;28;19920;-83
2023/06/05 05:33:14;;;;;;;;;;;;;;;;;;5058624;28;20351;-83
2023/06/05 05:35:40;;;;;;;;;;;;;;;;;;5075103;28;20004;-83
2023/06/05 05:38:07;;;;;;;;;;;;;;;;;;5057990;28;19931;-83
2023/06/05 05:40:32;;;;;;;;;;;;;;;;;;5057791;28;20010;-83
2023/06/05 05:42:58;;;;;;;;;;;;;;;;;;5058731;28;19971;-83
2023/06/05 05:45:24;;;;;;;;;;;;;;;;;;5108827;28;19926;-83
2023/06/05 05:47:50;;;;;;;;;;;;;;;;;;5074755;28;19920;-83
2023/06/05 05:50:16;;;;;;;;;;;;;;;;;;5057588;28;20391;-83
2023/06/05 05:52:47;;;;;;;;;;;;;;;;;;5109071;28;19978;-83
2023/06/05 05:55:13;;;;;;;;;;;;;;;;;;5058385;28;19920;-84
2023/06/05 05:57:39;;;;;;;;;;;;;;;;;;5108810;28;20412;-83
2023/06/05 06:00:09;;;;;;;;;;;;;;;;;;5057599;28;19972;-83
2023/06/05 06:02:36;;;;;;;;;;;;;;;;;;5058001;28;19920;-83
2023/06/05 06:05:04;;;;;;;;;;;;;;;;;;5074663;28;20336;-83
2023/06/05 06:07:31;;;;;;;;;;;;;;;;;;5074709;28;19994;-85
2023/06/05 06:09:57;;;;;;;;;;;;;;;;;;5074287;28;20411;-83
2023/06/05 06:12:23;;;;;;;;;;;;;;;;;;5058256;28;19920;-83
2023/06/05 06:14:49;;;;;;;;;;;;;;;;;;5108784;28;20383;-83
2023/06/05 06:17:15;;;;;;;;;;;;;;;;;;5108789;28;19920;-83
2023/06/05 06:19:42;;;;;;;;;;;;;;;;;;5091085;28;20378;-83
2023/06/05 06:22:11;;;;;;;;;;;;;;;;;;5108195;28;19926;-83
2023/06/05 06:24:37;;;;;;;;;;;;;;;;;;5057731;28;19924;-83
2023/06/05 06:27:03;;;;;;;;;;;;;;;;;;5108322;28;19970;-83
2023/06/05 06:29:30;;;;;;;;;;;;;;;;;;5057552;28;19946;-83
2023/06/05 06:31:57;;;;;;;;;;;;;;;;;;5057548;28;20018;-83
2023/06/05 06:34:24;;;;;;;;;;;;;;;;;;5057534;28;19920;-83
2023/06/05 06:36:50;;;;;;;;;;;;;;;;;;5074312;28;19920;-83
2023/06/05 06:39:17;;;;;;;;;;;;;;;;;;5057508;28;19928;-83
2023/06/05 06:41:44;;;;;;;;;;;;;;;;;;5074265;28;19927;-83
2023/06/05 06:44:10;;;;;;;;;;;;;;;;;;5057639;28;19920;-83
2023/06/05 06:46:36;;;;;;;;;;;;;;;;;;5074332;28;19928;-83
2023/06/05 06:49:02;;;;;;;;;;;;;;;;;;5059038;28;19928;-83
2023/06/05 06:51:28;;;;;;;;;;;;;;;;;;5077643;28;19926;-83
2023/06/05 06:53:53;;;;;;;;;;;;;;;;;;5111710;28;19920;-83
2023/06/05 06:56:19;;;;;;;;;;;;;;;;;;5094913;28;20385;-83
2023/06/05 06:58:45;;;;;;;;;;;;;;;;;;5061062;28;19924;-83
2023/06/05 07:01:12;;;;;;;;;;;;;;;;;;5077706;28;20307;-83
2023/06/05 07:03:40;;;;;;;;;;;;;;;;;;5061295;28;19965;-83
2023/06/05 07:06:06;;;;;;;;;;;;;;;;;;5061197;28;20369;-83
2023/06/05 07:08:32;;;;;;;;;;;;;;;;;;5111752;28;19930;-83
2023/06/05 07:10:58;;;;;;;;;;;;;;;;;;5060628;28;19928;-83
2023/06/05 07:13:24;;;;;;;;;;;;;;;;;;5061133;28;19927;-83
2023/06/05 07:15:50;;;;;;;;;;;;;;;;;;5111618;28;19926;-83
2023/06/05 07:18:16;;;;;;;;;;;;;;;;;;5060719;28;19974;-83
2023/06/05 07:20:42;;;;;;;;;;;;;;;;;;5060703;28;19959;-83
2023/06/05 07:23:08;;;;;;;;;;;;;;;;;;5060922;28;19972;-83
2023/06/05 07:25:34;;;;;;;;;;;;;;;;;;5077352;28;19921;-83
2023/06/05 07:28:00;;;;;;;;;;;;;;;;;;5060745;28;20399;-83
2023/06/05 07:30:26;;;;;;;;;;;;;;;;;;5060188;28;20007;-83
2023/06/05 07:32:52;;;;;;;;;;;;;;;;;;5077398;28;20352;-83
2023/06/05 07:35:23;;;;;;;;;;;;;;;;;;5093974;28;20377;-83
2023/06/05 07:37:49;;;;;;;;;;;;;;;;;;5094151;28;19985;-83
2023/06/05 07:40:15;;;;;;;;;;;;;;;;;;5093514;28;19920;-84
2023/06/05 07:42:41;;;;;;;;;;;;;;;;;;5094049;28;19920;-83
2023/06/05 07:45:07;;;;;;;;;;;;;;;;;;5077180;28;19920;-83
2023/06/05 07:47:32;;;;;;;;;;;;;;;;;;5060051;28;19931;-83
2023/06/05 07:49:59;;;;;;;;;;;;;;;;;;5059910;28;19920;-84
2023/06/05 07:52:26;;;;;;;;;;;;;;;;;;5060416;28;21364;-83
2023/06/05 07:54:52;;;;;;;;;;;;;;;;;;5060016;28;20432;-83
2023/06/05 07:57:19;;;;;;;;;;;;;;;;;;5059962;28;19934;-84
2023/06/05 07:59:46;;;;;;;;;;;;;;;;;;5110046;28;19926;-83
2023/06/05 08:02:12;;;;;;;;;;;;;;;;;;5110662;28;19959;-84
2023/06/05 08:04:39;;;;;;;;;;;;;;;;;;5060099;28;19967;-83
2023/06/05 08:07:05;;;;;;;;;;;;;;;;;;5110653;28;20019;-84
2023/06/05 08:09:31;;;;;;;;;;;;;;;;;;5110016;28;19974;-83
2023/06/05 08:11:57;;;;;;;;;;;;;;;;;;5059697;28;19924;-83
2023/06/05 08:14:23;;;;;;;;;;;;;;;;;;5059732;28;19920;-83
2023/06/05 08:16:49;;;;;;;;;;;;;;;;;;5059924;28;19924;-85
2023/06/05 08:19:14;;;;;;;;;;;;;;;;;;5059523;28;19925;-85
2023/06/05 08:21:40;;;;;;;;;;;;;;;;;;5059354;28;19920;-86
2023/06/05 08:24:06;;;;;;;;;;;;;;;;;;5076407;28;19920;-85
2023/06/05 08:26:32;;;;;;;;;;;;;;;;;;5076337;28;20403;-85
2023/06/05 08:28:58;;;;;;;;;;;;;;;;;;5076177;28;19927;-84
2023/06/05 08:31:25;;;;;;;;;;;;;;;;;;5069426;28;19924;-85
2023/06/05 08:33:51;;;;;;;;;;;;;;;;;;5087843;28;19920;-86
2023/06/05 08:36:17;;;;;;;;;;;;;;;;;;5061383;28;20010;-85
2023/06/05 08:38:43;;;;;;;;;;;;;;;;;;5075456;28;20325;-84
2023/06/05 08:41:10;;;;;;;;;;;;;;;;;;5058170;28;19925;-84
2023/06/05 08:43:36;;;;;;;;;;;;;;;;;;5059570;28;19942;-85
2023/06/05 08:46:01;;;;;;;;;;;;;;;;;;5105404;28;19924;-85
2023/06/05 08:48:27;;;;;;;;;;;;;;;;;;5092727;28;19993;-86
2023/06/05 08:50:54;;;;;;;;;;;;;;;;;;5092596;28;19919;-85
2023/06/05 08:53:20;;;;;;;;;;;;;;;;;;5092872;28;20014;-86
2023/06/05 08:55:46;;;;;;;;;;;;;;;;;;5093780;28;19978;-85
2023/06/05 08:58:12;;;;;;;;;;;;;;;;;;5074141;28;19924;-85
2023/06/05 09:00:42;;;;;;;;;;;;;;;;;;5072246;28;20441;-85
2023/06/05 09:03:08;;;;;;;;;;;;;;;;;;5071332;28;19924;-85
2023/06/05 09:05:34;;;;;;;;;;;;;;;;;;5081943;28;19920;-85
2023/06/05 09:08:00;;;;;;;;;;;;;;;;;;5084919;28;19924;-85
2023/06/05 09:15:53;;;;;;;;;;;;;;;;;;5108771;28;19926;-84
2023/06/05 09:18:21;;;;;;;;;;;;;;;;;;5042213;28;19931;-84
2023/06/05 09:20:47;;;;;;;;;;;;;;;;;;5057571;28;20023;-85
2023/06/05 09:23:14;;;;;;;;;;;;;;;;;;5075299;28;20019;-86
2023/06/05 09:25:39;;;;;;;;;;;;;;;;;;5057267;28;19967;-85
2023/06/05 09:28:06;;;;;;;;;;;;;;;;;;5091275;28;19962;-85
2023/06/05 09:30:32;;;;;;;;;;;;;;;;;;5093738;28;19931;-85
2023/06/05 09:32:58;;;;;;;;;;;;;;;;;;5099917;28;19920;-84
2023/06/05 09:35:24;;;;;;;;;;;;;;;;;;5090821;28;20391;-84
2023/06/05 09:37:55;;;;;;;;;;;;;;;;;;5104607;28;19938;-85
2023/06/05 09:40:21;;;;;;;;;;;;;;;;;;5083667;28;19924;-85
2023/06/05 09:42:55;;;;;;;;;;;;;;;;;;5101964;28;19931;-85
2023/06/05 09:45:21;;;;;;;;;;;;;;;;;;5066983;28;19924;-85
2023/06/05 09:47:47;;;;;;;;;;;;;;;;;;5108555;28;19927;-86
2023/06/05 09:50:13;;;;;;;;;;;;;;;;;;5108163;28;19923;-85
2023/06/05 09:52:38;;;;;;;;;;;;;;;;;;5075481;28;20561;-85
2023/06/05 09:55:08;;;;;;;;;;;;;;;;;;5111677;28;19927;-85
2023/06/05 09:57:45;;;;;;;;;;;;;;;;;;5080214;28;19924;-85
2023/06/05 10:00:15;;;;;;;;;;;;;;;;;;5085883;28;19923;-85
2023/06/05 10:02:45;;;;;;;;;;;;;;;;;;5097843;28;19930;-85
2023/06/05 10:05:22;;;;;;;;;;;;;;;;;;5062572;28;19976;-85
2023/06/05 10:07:53;;;;;;;;;;;;;;;;;;5064620;28;20361;-85
2023/06/05 10:10:19;;;;;;;;;;;;;;;;;;5099057;28;19924;-85
2023/06/05 10:12:46;;;;;;;;;;;;;;;;;;5102480;28;19927;-85
2023/06/05 10:15:12;;;;;;;;;;;;;;;;;;5095409;28;19924;-84
2023/06/05 10:20:27;;;;;;;;;;;;;;;;;;5117879;28;20303;-85
2023/06/05 10:25:42;;;;;;;;;;;;;;;;;;5081407;28;19946;-85
2023/06/05 10:28:13;;;;;;;;;;;;;;;;;;5092343;28;19973;-84
2023/06/05 10:30:41;;;;;;;;;;;;;;;;;;5076547;28;19920;-85
2023/06/05 10:33:14;;;;;;;;;;;;;;;;;;5095744;28;19924;-84
2023/06/05 10:35:47;;;;;;;;;;;;;;;;;;5099250;28;20499;-84
2023/06/05 10:38:18;;;;;;;;;;;;;;;;;;5080260;28;19959;-84
2023/06/05 10:40:44;;;;;;;;;;;;;;;;;;5060729;28;19924;-84
2023/06/05 10:43:10;;;;;;;;;;;;;;;;;;5094734;28;19973;-85
2023/06/05 10:45:36;;;;;;;;;;;;;;;;;;5068016;28;19920;-85
2023/06/05 10:48:02;;;;;;;;;;;;;;;;;;5082468;28;20011;-84
2023/06/05 10:50:28;;;;;;;;;;;;;;;;;;5064278;28;19951;-85
2023/06/05 10:52:54;;;;;;;;;;;;;;;;;;5080031;28;20337;-85
2023/06/05 10:55:20;;;;;;;;;;;;;;;;;;5060394;28;19920;-85
2023/06/05 10:57:46;;;;;;;;;;;;;;;;;;5060592;28;19931;-85
2023/06/05 11:00:11;;;;;;;;;;;;;;;;;;5060601;28;20372;-85
2023/06/05 11:05:41;;;;;;;;;;;;;;;;;;5085601;28;20426;-84
2023/06/05 11:08:20;;;;;;;;;;;;;;;;;;5077098;28;19920;-84
2023/06/05 11:10:48;;;;;;;;;;;;;;;;;;5105262;28;19998;-85
2023/06/05 11:13:18;;;;;;;;;;;;;;;;;;5077792;28;19920;-85
2023/06/05 11:15:45;;;;;;;;;;;;;;;;;;5077589;28;19920;-84
2023/06/05 11:18:11;;;;;;;;;;;;;;;;;;5062438;28;20038;-85
2023/06/05 11:20:37;;;;;;;;;;;;;;;;;;5101830;28;19999;-85
2023/06/05 11:23:03;;;;;;;;;;;;;;;;;;5077067;28;19981;-85
2023/06/05 11:25:32;;;;;;;;;;;;;;;;;;5091725;28;19920;-85
2023/06/05 11:28:01;;;;;;;;;;;;;;;;;;5095061;28;19927;-85
2023/06/05 11:30:32;;;;;;;;;;;;;;;;;;5042003;28;19920;-85
2023/06/05 11:33:09;;;;;;;;;;;;;;;;;;5096158;28;20306;-86
2023/06/05 11:35:37;;;;;;;;;;;;;;;;;;5093409;28;19980;-85
2023/06/05 11:38:05;;;;;;;;;;;;;;;;;;5064020;28;19933;-84
2023/06/05 11:40:33;;;;;;;;;;;;;;;;;;5078966;28;19920;-84
2023/06/05 11:42:59;;;;;;;;;;;;;;;;;;5059917;28;19924;-84
2023/06/05 11:45:27;;;;;;;;;;;;;;;;;;5076819;28;19964;-84
2023/06/05 11:47:58;;;;;;;;;;;;;;;;;;5076587;28;19928;-84
2023/06/05 11:50:30;;;;;;;;;;;;;;;;;;5085038;28;20053;-84
2023/06/05 11:56:06;;;;;;;;;;;;;;;;;;5112822;28;20253;-84
2023/06/05 11:58:34;;;;;;;;;;;;;;;;;;5102254;28;19928;-84
2023/06/05 12:01:02;;;;;;;;;;;;;;;;;;5082385;28;19920;-84
2023/06/05 12:03:28;;;;;;;;;;;;;;;;;;5109286;28;19920;-85
2023/06/05 12:05:55;;;;;;;;;;;;;;;;;;5109318;28;20300;-85
2023/06/05 12:08:21;;;;;;;;;;;;;;;;;;5094372;28;19935;-85
2023/06/05 12:10:47;;;;;;;;;;;;;;;;;;5062032;28;19920;-85
2023/06/05 12:13:13;;;;;;;;;;;;;;;;;;5082149;28;19923;-85
2023/06/05 12:15:39;;;;;;;;;;;;;;;;;;5093144;28;19920;-85
2023/06/05 12:18:05;;;;;;;;;;;;;;;;;;5109629;28;20541;-85
2023/06/05 12:20:31;;;;;;;;;;;;;;;;;;5058589;28;19950;-85
2023/06/05 12:22:57;;;;;;;;;;;;;;;;;;5073293;28;19981;-86
2023/06/05 12:25:23;;;;;;;;;;;;;;;;;;5059182;28;20353;-86
2023/06/05 12:27:49;;;;;;;;;;;;;;;;;;5059741;28;19924;-87
2023/06/05 12:30:17;;;;;;;;;;;;;;;;;;5060126;28;19920;-87
2023/06/05 12:32:43;;;;;;;;;;;;;;;;;;5059465;28;19920;-87
2023/06/05 12:35:09;;;;;;;;;;;;;;;;;;5059162;28;20332;-86
2023/06/05 12:37:39;;;;;;;;;;;;;;;;;;5058931;28;19931;-85
2023/06/05 12:40:10;;;;;;;;;;;;;;;;;;5060622;28;20014;-86
2023/06/05 12:42:36;;;;;;;;;;;;;;;;;;5095767;28;20030;-85
2023/06/05 12:45:03;;;;;;;;;;;;;;;;;;5104868;28;20392;-85
2023/06/05 12:47:29;;;;;;;;;;;;;;;;;;5092867;28;19924;-86
2023/06/05 12:49:56;;;;;;;;;;;;;;;;;;5074752;28;20006;-85
2023/06/05 12:52:25;;;;;;;;;;;;;;;;;;5058798;28;19970;-86
2023/06/05 12:54:51;;;;;;;;;;;;;;;;;;5066066;28;19920;-86
2023/06/05 12:57:21;;;;;;;;;;;;;;;;;;5095826;28;19927;-86
2023/06/05 12:59:47;;;;;;;;;;;;;;;;;;5077009;28;20322;-85
2023/06/05 13:02:13;;;;;;;;;;;;;;;;;;5083138;28;20015;-87
2023/06/05 13:04:47;;;;;;;;;;;;;;;;;;5054391;28;19920;-89
2023/06/05 13:09:42;;;;;;;;;;;;;;;;;;5109442;28;19935;-87
2023/06/05 13:12:08;;;;;;;;;;;;;;;;;;5092609;28;19924;-88
2023/06/05 13:14:34;;;;;;;;;;;;;;;;;;5058371;28;19920;-87
2023/06/05 13:17:00;;;;;;;;;;;;;;;;;;5092257;28;20288;-88
2023/06/05 13:19:26;;;;;;;;;;;;;;;;;;5092129;28;19924;-88
2023/06/05 13:21:52;;;;;;;;;;;;;;;;;;5091851;28;19924;-87
2023/06/05 13:24:18;;;;;;;;;;;;;;;;;;5091046;28;20333;-88
2023/06/05 13:29:13;;;;;;;;;;;;;;;;;;5109352;28;19924;-87
2023/06/05 13:31:39;;;;;;;;;;;;;;;;;;5092263;28;19920;-88
2023/06/05 13:34:05;;;;;;;;;;;;;;;;;;5094156;28;19920;-88
2023/06/05 13:36:31;;;;;;;;;;;;;;;;;;5090109;28;20505;-88
2023/06/05 13:41:28;;;;;;;;;;;;;;;;;;5108314;28;19920;-88
2023/06/05 13:43:57;;;;;;;;;;;;;;;;;;5058345;28;19920;-87
2023/06/05 13:46:23;;;;;;;;;;;;;;;;;;5092498;28;19920;-88
2023/06/05 13:48:49;;;;;;;;;;;;;;;;;;5058091;28;20045;-87
2023/06/05 13:51:16;;;;;;;;;;;;;;;;;;5081859;28;19923;-89
2023/06/05 13:53:42;;;;;;;;;;;;;;;;;;5091982;28;20018;-88
2023/06/05 13:56:07;;;;;;;;;;;;;;;;;;5090990;28;19967;-89
2023/06/05 13:58:33;;;;;;;;;;;;;;;;;;5094945;28;20384;-89
2023/06/05 14:01:06;;;;;;;;;;;;;;;;;;5090111;28;19920;-88
2023/06/05 14:03:32;;;;;;;;;;;;;;;;;;5058784;28;19924;-89
2023/06/05 14:05:58;;;;;;;;;;;;;;;;;;5077600;28;19920;-89
2023/06/05 14:10:57;;;;;;;;;;;;;;;;;;5108547;28;19974;-89
2023/06/05 14:13:33;;;;;;;;;;;;;;;;;;5074887;28;19973;-88
2023/06/05 14:18:44;;;;;;;;;;;;;;;;;;5072765;28;20007;-89
2023/06/05 14:21:24;;;;;;;;;;;;;;;;;;5057534;28;19921;-88
2023/06/05 14:23:56;;;;;;;;;;;;;;;;;;5057332;28;19923;-88
2023/06/05 14:26:39;;;;;;;;;;;;;;;;;;5057986;28;20439;-89
2023/06/05 14:29:05;;;;;;;;;;;;;;;;;;5064143;28;19931;-90
2023/06/05 14:31:31;;;;;;;;;;;;;;;;;;5094987;28;19920;-88
2023/06/05 14:36:30;;;;;;;;;;;;;;;;;;5074284;28;19974;-89
2023/06/05 14:38:56;;;;;;;;;;;;;;;;;;5074820;28;19924;-88
2023/06/05 14:41:23;;;;;;;;;;;;;;;;;;5055465;28;20018;-89
2023/06/05 14:44:00;;;;;;;;;;;;;;;;;;5074889;28;19924;-88
2023/06/05 14:46:32;;;;;;;;;;;;;;;;;;5091303;28;19969;-88
2023/06/05 14:48:58;;;;;;;;;;;;;;;;;;5091200;28;19926;-89
2023/06/05 14:51:24;;;;;;;;;;;;;;;;;;5091213;28;20003;-90
2023/06/05 14:53:53;;;;;;;;;;;;;;;;;;5075119;28;20284;-89
2023/06/05 14:56:21;;;;;;;;;;;;;;;;;;5075028;28;19920;-92
2023/06/05 14:58:47;;;;;;;;;;;;;;;;;;5075163;28;19924;-87
2023/06/05 15:01:13;;;;;;;;;;;;;;;;;;5058066;28;19998;-90
2023/06/05 15:03:39;;;;;;;;;;;;;;;;;;5091951;28;19924;-91
2023/06/05 15:06:05;;;;;;;;;;;;;;;;;;5092089;28;20345;-90
2023/06/05 15:08:31;;;;;;;;;;;;;;;;;;5092033;28;19920;-91
2023/06/05 15:10:57;;;;;;;;;;;;;;;;;;5094444;28;19920;-90
2023/06/05 15:13:24;;;;;;;;;;;;;;;;;;5078975;28;19959;-91
2023/06/05 15:15:50;;;;;;;;;;;;;;;;;;5095627;28;19921;-90
2023/06/05 15:18:16;;;;;;;;;;;;;;;;;;5091838;28;20013;-91
2023/06/05 15:20:42;;;;;;;;;;;;;;;;;;5094956;28;19924;-88
2023/06/05 15:23:08;;;;;;;;;;;;;;;;;;5095142;28;19920;-87
2023/06/05 15:25:34;;;;;;;;;;;;;;;;;;5095174;28;19920;-89
2023/06/05 15:28:00;;;;;;;;;;;;;;;;;;5077664;28;19928;-89
2023/06/05 15:30:26;;;;;;;;;;;;;;;;;;5060386;28;19919;-88
2023/06/05 15:32:52;;;;;;;;;;;;;;;;;;5060405;28;19973;-87
2023/06/05 15:35:18;;;;;;;;;;;;;;;;;;5060371;28;19927;-87
2023/06/05 15:37:44;;;;;;;;;;;;;;;;;;5110862;28;20369;-87
2023/06/05 15:40:10;;;;;;;;;;;;;;;;;;5095356;28;20372;-87
2023/06/05 15:42:36;;;;;;;;;;;;;;;;;;5060271;28;19965;-87
2023/06/05 15:45:02;;;;;;;;;;;;;;;;;;5093883;28;19924;-87
2023/06/05 15:47:28;;;;;;;;;;;;;;;;;;5060213;28;19981;-87
2023/06/05 15:49:56;;;;;;;;;;;;;;;;;;5058996;28;20369;-86
2023/06/05 15:52:23;;;;;;;;;;;;;;;;;;5058199;28;19927;-87
2023/06/05 15:54:53;;;;;;;;;;;;;;;;;;5089006;28;20003;-86
2023/06/05 15:57:29;;;;;;;;;;;;;;;;;;5093489;28;19924;-87
2023/06/05 15:59:59;;;;;;;;;;;;;;;;;;5059676;28;19924;-87
2023/06/05 16:02:26;;;;;;;;;;;;;;;;;;5059935;28;19926;-86
2023/06/05 16:04:53;;;;;;;;;;;;;;;;;;5060231;28;19920;-87
2023/06/05 16:07:21;;;;;;;;;;;;;;;;;;5092984;28;19928;-87
2023/06/05 16:09:49;;;;;;;;;;;;;;;;;;5092974;28;19931;-87
2023/06/05 16:12:17;;;;;;;;;;;;;;;;;;5093219;28;19924;-87
2023/06/05 16:14:50;;;;;;;;;;;;;;;;;;5093115;28;20332;-87
2023/06/05 16:17:18;;;;;;;;;;;;;;;;;;5092936;28;19920;-87
2023/06/05 16:19:47;;;;;;;;;;;;;;;;;;5092485;28;20016;-86
2023/06/05 16:22:13;;;;;;;;;;;;;;;;;;5059217;28;20323;-87
2023/06/05 16:24:39;;;;;;;;;;;;;;;;;;5099127;28;19949;-86
2023/06/05 16:27:05;;;;;;;;;;;;;;;;;;5113241;28;20379;-87
2023/06/05 16:29:31;;;;;;;;;;;;;;;;;;5087296;28;20331;-87
2023/06/05 16:31:57;;;;;;;;;;;;;;;;;;5059339;28;19924;-87
2023/06/05 16:34:23;;;;;;;;;;;;;;;;;;5058721;28;19920;-87
2023/06/05 16:36:49;;;;;;;;;;;;;;;;;;5092952;28;19927;-87
2023/06/05 16:39:15;;;;;;;;;;;;;;;;;;5075945;28;20308;-87
2023/06/05 16:41:41;;;;;;;;;;;;;;;;;;5092402;28;19932;-87
2023/06/05 16:44:11;;;;;;;;;;;;;;;;;;5075866;28;20292;-87
2023/06/05 16:46:36;;;;;;;;;;;;;;;;;;5078933;28;20484;-87
2023/06/05 16:49:02;;;;;;;;;;;;;;;;;;5109357;28;19924;-87
2023/06/05 16:51:28;;;;;;;;;;;;;;;;;;5101558;28;19920;-87
2023/06/05 16:53:54;;;;;;;;;;;;;;;;;;5059553;28;19920;-87
2023/06/05 16:56:20;;;;;;;;;;;;;;;;;;5075818;28;19931;-87
2023/06/05 16:58:46;;;;;;;;;;;;;;;;;;5058560;28;19978;-87
2023/06/05 17:01:12;;;;;;;;;;;;;;;;;;5075444;28;19932;-87
2023/06/05 17:03:38;;;;;;;;;;;;;;;;;;5059091;28;20439;-87
2023/06/05 17:06:04;;;;;;;;;;;;;;;;;;5059156;28;20380;-87
2023/06/05 17:08:30;;;;;;;;;;;;;;;;;;5068293;28;19927;-87
2023/06/05 17:10:56;;;;;;;;;;;;;;;;;;5091982;28;19959;-87
2023/06/05 17:13:22;;;;;;;;;;;;;;;;;;5109754;28;20312;-87
2023/06/05 17:15:47;;;;;;;;;;;;;;;;;;5109658;28;19920;-87